createdAt,value
2022-09-20T00:00:15.589Z,1011.16
2022-09-20T00:01:15.664Z,1011.19
2022-09-20T00:02:15.540Z,1011.24
2022-09-20T00:03:15.523Z,1011.29
2022-09-20T00:04:15.515Z,1011.23
2022-09-20T00:05:15.586Z,1011.28
2022-09-20T00:06:15.492Z,1011.27
2022-09-20T00:07:15.481Z,1011.27
2022-09-20T00:08:15.472Z,1011.27
2022-09-20T00:09:15.458Z,1011.25
2022-09-20T00:10:15.473Z,1011.26
2022-09-20T00:11:15.462Z,1011.27
2022-09-20T00:12:15.430Z,1011.23
2022-09-20T00:13:15.417Z,1011.22
2022-09-20T00:14:15.430Z,1011.22
2022-09-20T00:15:15.393Z,1011.23
2022-09-20T00:16:15.438Z,1011.24
2022-09-20T00:17:15.378Z,1011.23
2022-09-20T00:18:15.362Z,1011.28
2022-09-20T00:19:15.360Z,1011.29
2022-09-20T00:20:15.341Z,1011.27
2022-09-20T00:21:15.329Z,1011.27
2022-09-20T00:22:15.320Z,1011.26
2022-09-20T00:23:15.307Z,1011.29
2022-09-20T00:24:15.310Z,1011.28
2022-09-20T00:25:15.285Z,1011.31
2022-09-20T00:26:15.276Z,1011.29
2022-09-20T00:27:15.276Z,1011.32
2022-09-20T00:28:15.258Z,1011.30
2022-09-20T00:29:15.253Z,1011.32
2022-09-20T00:30:15.236Z,1011.28
2022-09-20T00:31:15.315Z,1011.32
2022-09-20T00:32:15.292Z,1011.30
2022-09-20T00:33:15.199Z,1011.30
2022-09-20T00:34:15.201Z,1011.33
2022-09-20T00:35:15.179Z,1011.32
2022-09-20T00:36:15.173Z,1011.35
2022-09-20T00:37:15.157Z,1011.35
2022-09-20T00:38:15.149Z,1011.35
2022-09-20T00:39:15.148Z,1011.34
2022-09-20T00:40:15.209Z,1011.35
2022-09-20T00:41:15.114Z,1011.35
2022-09-20T00:42:15.111Z,1011.35
2022-09-20T00:43:15.091Z,1011.34
2022-09-20T00:44:15.091Z,1011.34
2022-09-20T00:45:15.070Z,1011.34
2022-09-20T00:46:15.135Z,1011.31
2022-09-20T00:47:15.047Z,1011.37
2022-09-20T00:48:15.055Z,1011.35
2022-09-20T00:49:15.037Z,1011.34
2022-09-20T00:50:15.015Z,1011.34
2022-09-20T00:51:15.006Z,1011.31
2022-09-20T00:52:14.995Z,1011.31
2022-09-20T00:53:14.984Z,1011.32
2022-09-20T00:54:19.500Z,1011.32
2022-09-20T00:55:15.964Z,1011.38
2022-09-20T00:56:14.951Z,1011.33
2022-09-20T00:57:14.938Z,1011.35
2022-09-20T00:58:14.929Z,1011.37
2022-09-20T00:59:14.934Z,1011.35
2022-09-20T01:00:14.909Z,1011.37
2022-09-20T01:01:14.971Z,1011.37
2022-09-20T01:02:14.921Z,1011.34
2022-09-20T01:03:14.873Z,1011.39
2022-09-20T01:04:14.897Z,1011.33
2022-09-20T01:05:14.857Z,1011.33
2022-09-20T01:06:14.843Z,1011.34
2022-09-20T01:07:14.831Z,1011.32
2022-09-20T01:08:14.828Z,1011.36
2022-09-20T01:09:14.809Z,1011.36
2022-09-20T01:10:14.799Z,1011.37
2022-09-20T01:11:14.788Z,1011.38
2022-09-20T01:12:14.778Z,1011.37
2022-09-20T01:13:14.770Z,1011.34
2022-09-20T01:14:14.756Z,1011.37
2022-09-20T01:15:14.745Z,1011.39
2022-09-20T01:16:14.802Z,1011.37
2022-09-20T01:17:14.722Z,1011.34
2022-09-20T01:18:14.728Z,1011.33
2022-09-20T01:19:14.703Z,1011.35
2022-09-20T01:20:14.708Z,1011.36
2022-09-20T01:21:14.679Z,1011.36
2022-09-20T01:22:14.668Z,1011.35
2022-09-20T01:23:14.657Z,1011.35
2022-09-20T01:24:14.657Z,1011.36
2022-09-20T01:25:14.633Z,1011.37
2022-09-20T01:26:14.626Z,1011.38
2022-09-20T01:27:14.612Z,1011.38
2022-09-20T01:28:14.612Z,1011.35
2022-09-20T01:29:14.591Z,1011.34
2022-09-20T01:30:14.579Z,1011.35
2022-09-20T01:31:14.681Z,1011.38
2022-09-20T01:32:14.557Z,1011.36
2022-09-20T01:33:14.572Z,1011.37
2022-09-20T01:34:14.535Z,1011.30
2022-09-20T01:35:14.526Z,1011.34
2022-09-20T01:36:14.530Z,1011.39
2022-09-20T01:37:14.503Z,1011.37
2022-09-20T01:38:14.494Z,1011.39
2022-09-20T01:39:14.494Z,1011.39
2022-09-20T01:40:14.550Z,1011.37
2022-09-20T01:41:14.460Z,1011.41
2022-09-20T01:42:14.446Z,1011.37
2022-09-20T01:43:14.438Z,1011.42
2022-09-20T01:44:14.435Z,1011.40
2022-09-20T01:45:14.435Z,1011.42
2022-09-20T01:46:14.454Z,1011.41
2022-09-20T01:47:14.395Z,1011.42
2022-09-20T01:48:14.393Z,1011.46
2022-09-20T01:49:14.373Z,1011.43
2022-09-20T01:50:14.360Z,1011.44
2022-09-20T01:51:14.352Z,1011.41
2022-09-20T01:52:14.354Z,1011.41
2022-09-20T01:53:14.342Z,1011.43
2022-09-20T01:54:14.316Z,1011.46
2022-09-20T01:55:14.308Z,1011.49
2022-09-20T01:56:14.296Z,1011.48
2022-09-20T01:57:14.286Z,1011.53
2022-09-20T01:58:14.284Z,1011.50
2022-09-20T01:59:25.177Z,1011.48
2022-09-20T02:00:15.249Z,1011.51
2022-09-20T02:01:14.285Z,1011.50
2022-09-20T02:02:14.314Z,1011.49
2022-09-20T02:03:14.229Z,1011.51
2022-09-20T02:04:14.207Z,1011.54
2022-09-20T02:05:14.197Z,1011.50
2022-09-20T02:06:14.183Z,1011.51
2022-09-20T02:07:14.175Z,1011.52
2022-09-20T02:08:14.190Z,1011.53
2022-09-20T02:09:14.153Z,1011.49
2022-09-20T02:10:14.140Z,1011.51
2022-09-20T02:11:14.155Z,1011.49
2022-09-20T02:12:14.118Z,1011.50
2022-09-20T02:13:14.122Z,1011.48
2022-09-20T02:14:14.095Z,1011.53
2022-09-20T02:15:14.090Z,1011.56
2022-09-20T02:16:14.121Z,1011.56
2022-09-20T02:17:14.063Z,1011.51
2022-09-20T02:18:14.065Z,1011.56
2022-09-20T02:19:14.048Z,1011.54
2022-09-20T02:20:14.029Z,1011.56
2022-09-20T02:21:14.022Z,1011.56
2022-09-20T02:22:14.005Z,1011.53
2022-09-20T02:23:14.039Z,1011.52
2022-09-20T02:24:14.001Z,1011.52
2022-09-20T02:25:13.975Z,1011.55
2022-09-20T02:26:13.964Z,1011.54
2022-09-20T02:27:13.953Z,1011.53
2022-09-20T02:28:13.951Z,1011.56
2022-09-20T02:29:13.930Z,1011.60
2022-09-20T02:30:13.917Z,1011.54
2022-09-20T02:31:13.997Z,1011.62
2022-09-20T02:32:13.898Z,1011.61
2022-09-20T02:33:13.908Z,1011.64
2022-09-20T02:34:13.874Z,1011.59
2022-09-20T02:35:13.917Z,1011.63
2022-09-20T02:36:13.854Z,1011.60
2022-09-20T02:37:13.844Z,1011.64
2022-09-20T02:38:13.840Z,1011.66
2022-09-20T02:39:13.820Z,1011.66
2022-09-20T02:40:13.912Z,1011.67
2022-09-20T02:41:13.805Z,1011.71
2022-09-20T02:42:13.787Z,1011.69
2022-09-20T02:43:13.794Z,1011.69
2022-09-20T02:44:13.764Z,1011.68
2022-09-20T02:45:13.756Z,1011.73
2022-09-20T02:46:13.795Z,1011.72
2022-09-20T02:47:13.734Z,1011.75
2022-09-20T02:48:13.733Z,1011.73
2022-09-20T02:49:13.715Z,1011.72
2022-09-20T02:50:13.700Z,1011.71
2022-09-20T02:51:13.691Z,1011.69
2022-09-20T02:52:13.679Z,1011.73
2022-09-20T02:53:13.681Z,1011.69
2022-09-20T02:54:13.657Z,1011.70
2022-09-20T02:55:13.649Z,1011.70
2022-09-20T02:56:13.653Z,1011.70
2022-09-20T02:57:13.626Z,1011.70
2022-09-20T02:58:13.625Z,1011.69
2022-09-20T02:59:13.604Z,1011.70
2022-09-20T03:00:13.591Z,1011.72
2022-09-20T03:01:13.671Z,1011.71
2022-09-20T03:02:13.674Z,1011.73
2022-09-20T03:03:13.576Z,1011.75
2022-09-20T03:04:13.548Z,1011.71
2022-09-20T03:05:13.538Z,1011.74
2022-09-20T03:06:13.529Z,1011.73
2022-09-20T03:07:13.516Z,1011.73
2022-09-20T03:08:13.513Z,1011.73
2022-09-20T03:09:13.497Z,1011.73
2022-09-20T03:10:13.483Z,1011.73
2022-09-20T03:11:13.471Z,1011.77
2022-09-20T03:12:13.478Z,1011.79
2022-09-20T03:13:13.466Z,1011.78
2022-09-20T03:14:13.442Z,1011.81
2022-09-20T03:15:13.430Z,1011.81
2022-09-20T03:16:13.468Z,1011.81
2022-09-20T03:17:13.409Z,1011.84
2022-09-20T03:18:13.413Z,1011.85
2022-09-20T03:19:13.385Z,1011.82
2022-09-20T03:20:13.380Z,1011.84
2022-09-20T03:21:13.384Z,1011.85
2022-09-20T03:22:13.356Z,1011.85
2022-09-20T03:23:13.351Z,1011.87
2022-09-20T03:24:13.332Z,1011.90
2022-09-20T03:25:13.321Z,1011.84
2022-09-20T03:26:13.308Z,1011.80
2022-09-20T03:27:13.300Z,1011.82
2022-09-20T03:28:13.312Z,1011.90
2022-09-20T03:29:13.277Z,1011.84
2022-09-20T03:30:13.268Z,1011.88
2022-09-20T03:31:13.258Z,1011.88
2022-09-20T03:32:13.282Z,1011.87
2022-09-20T03:33:13.248Z,1011.87
2022-09-20T03:34:13.223Z,1011.89
2022-09-20T03:35:13.211Z,1011.92
2022-09-20T03:36:13.200Z,1011.89
2022-09-20T03:37:13.190Z,1011.93
2022-09-20T03:38:13.192Z,1011.98
2022-09-20T03:39:13.171Z,1011.91
2022-09-20T03:40:13.218Z,1011.96
2022-09-20T03:41:13.147Z,1011.92
2022-09-20T03:42:13.136Z,1011.94
2022-09-20T03:43:13.140Z,1011.94
2022-09-20T03:44:13.134Z,1011.91
2022-09-20T03:45:13.109Z,1012.00
2022-09-20T03:46:13.141Z,1011.97
2022-09-20T03:47:13.085Z,1011.99
2022-09-20T03:48:13.093Z,1011.98
2022-09-20T03:49:13.062Z,1011.98
2022-09-20T03:50:13.050Z,1011.98
2022-09-20T03:51:13.040Z,1012.01
2022-09-20T03:52:13.027Z,1012.00
2022-09-20T03:53:13.031Z,1012.01
2022-09-20T03:54:13.006Z,1012.04
2022-09-20T03:55:12.995Z,1011.99
2022-09-20T03:56:12.990Z,1012.00
2022-09-20T03:57:12.973Z,1012.05
2022-09-20T03:58:13.006Z,1011.99
2022-09-20T03:59:12.956Z,1011.99
2022-09-20T04:00:12.955Z,1011.97
2022-09-20T04:01:13.007Z,1012.03
2022-09-20T04:02:12.962Z,1012.00
2022-09-20T04:03:12.917Z,1012.04
2022-09-20T04:04:12.907Z,1012.05
2022-09-20T04:05:12.889Z,1012.04
2022-09-20T04:06:12.879Z,1012.04
2022-09-20T04:07:12.878Z,1012.03
2022-09-20T04:08:12.853Z,1012.05
2022-09-20T04:09:12.844Z,1012.07
2022-09-20T04:10:12.834Z,1012.04
2022-09-20T04:11:12.826Z,1012.08
2022-09-20T04:12:12.810Z,1012.09
2022-09-20T04:13:12.837Z,1012.07
2022-09-20T04:14:12.980Z,1012.11
2022-09-20T04:15:12.780Z,1012.11
2022-09-20T04:16:12.853Z,1012.11
2022-09-20T04:17:12.758Z,1012.14
2022-09-20T04:18:12.755Z,1012.17
2022-09-20T04:19:12.734Z,1012.15
2022-09-20T04:20:12.721Z,1012.15
2022-09-20T04:21:12.715Z,1012.16
2022-09-20T04:22:12.700Z,1012.16
2022-09-20T04:23:12.734Z,1012.18
2022-09-20T04:24:12.681Z,1012.16
2022-09-20T04:25:12.671Z,1012.19
2022-09-20T04:26:12.659Z,1012.19
2022-09-20T04:27:12.647Z,1012.12
2022-09-20T04:28:12.651Z,1012.13
2022-09-20T04:29:12.626Z,1012.18
2022-09-20T04:30:12.619Z,1012.13
2022-09-20T04:31:12.607Z,1012.16
2022-09-20T04:32:12.799Z,1012.06
2022-09-20T04:33:12.596Z,1012.10
2022-09-20T04:34:12.576Z,1012.07
2022-09-20T04:35:12.561Z,1012.07
2022-09-20T04:36:12.550Z,1012.10
2022-09-20T04:37:12.540Z,1012.16
2022-09-20T04:38:12.537Z,1012.17
2022-09-20T04:39:12.520Z,1012.14
2022-09-20T04:40:12.541Z,1012.15
2022-09-20T04:41:12.495Z,1012.17
2022-09-20T04:42:12.502Z,1012.15
2022-09-20T04:43:12.480Z,1012.18
2022-09-20T04:44:12.460Z,1012.17
2022-09-20T04:45:12.451Z,1012.18
2022-09-20T04:46:12.523Z,1012.17
2022-09-20T04:47:12.431Z,1012.17
2022-09-20T04:48:12.444Z,1012.17
2022-09-20T04:49:12.409Z,1012.20
2022-09-20T04:50:12.592Z,1012.19
2022-09-20T04:51:12.416Z,1012.19
2022-09-20T04:52:12.375Z,1012.25
2022-09-20T04:53:12.388Z,1012.18
2022-09-20T04:54:12.355Z,1012.19
2022-09-20T04:55:12.344Z,1012.18
2022-09-20T04:56:12.329Z,1012.18
2022-09-20T04:57:12.320Z,1012.22
2022-09-20T04:58:12.316Z,1012.24
2022-09-20T04:59:12.300Z,1012.22
2022-09-20T05:00:12.286Z,1012.25
2022-09-20T05:01:12.339Z,1012.26
2022-09-20T05:02:12.343Z,1012.25
2022-09-20T05:03:12.265Z,1012.28
2022-09-20T05:04:12.337Z,1012.28
2022-09-20T05:05:12.234Z,1012.28
2022-09-20T05:06:12.221Z,1012.33
2022-09-20T05:07:12.209Z,1012.34
2022-09-20T05:08:12.210Z,1012.34
2022-09-20T05:09:12.201Z,1012.35
2022-09-20T05:10:12.175Z,1012.36
2022-09-20T05:11:12.167Z,1012.38
2022-09-20T05:12:12.155Z,1012.42
2022-09-20T05:13:12.157Z,1012.43
2022-09-20T05:14:12.133Z,1012.45
2022-09-20T05:15:12.122Z,1012.47
2022-09-20T05:16:12.210Z,1012.42
2022-09-20T05:17:12.100Z,1012.45
2022-09-20T05:18:12.100Z,1012.44
2022-09-20T05:19:12.079Z,1012.41
2022-09-20T05:20:12.088Z,1012.46
2022-09-20T05:21:12.059Z,1012.45
2022-09-20T05:22:12.046Z,1012.45
2022-09-20T05:23:12.044Z,1012.54
2022-09-20T05:24:12.690Z,1012.49
2022-09-20T05:25:12.020Z,1012.53
2022-09-20T05:26:12.002Z,1012.51
2022-09-20T05:27:11.992Z,1012.54
2022-09-20T05:28:11.988Z,1012.56
2022-09-20T05:29:11.971Z,1012.54
2022-09-20T05:30:11.957Z,1012.58
2022-09-20T05:31:11.948Z,1012.56
2022-09-20T05:32:12.029Z,1012.60
2022-09-20T05:33:11.933Z,1012.56
2022-09-20T05:34:11.914Z,1012.56
2022-09-20T05:35:11.903Z,1012.62
2022-09-20T05:36:11.909Z,1012.59
2022-09-20T05:37:11.881Z,1012.60
2022-09-20T05:38:11.882Z,1012.64
2022-09-20T05:39:11.858Z,1012.64
2022-09-20T05:40:11.903Z,1012.61
2022-09-20T05:41:11.838Z,1012.71
2022-09-20T05:42:11.839Z,1012.67
2022-09-20T05:43:11.814Z,1012.71
2022-09-20T05:44:11.807Z,1012.73
2022-09-20T05:45:11.790Z,1012.75
2022-09-20T05:46:11.848Z,1012.71
2022-09-20T05:47:11.783Z,1012.73
2022-09-20T05:48:11.764Z,1012.71
2022-09-20T05:49:11.748Z,1012.74
2022-09-20T05:50:11.739Z,1012.81
2022-09-20T05:51:11.725Z,1012.82
2022-09-20T05:52:11.751Z,1012.81
2022-09-20T05:53:11.711Z,1012.84
2022-09-20T05:54:11.693Z,1012.89
2022-09-20T05:55:11.685Z,1012.87
2022-09-20T05:56:11.671Z,1012.88
2022-09-20T05:57:11.670Z,1012.85
2022-09-20T05:58:11.659Z,1012.82
2022-09-20T05:59:12.053Z,1012.87
2022-09-20T06:00:11.629Z,1012.84
2022-09-20T06:01:11.671Z,1012.87
2022-09-20T06:02:11.669Z,1012.89
2022-09-20T06:03:11.594Z,1012.93
2022-09-20T06:04:11.585Z,1012.93
2022-09-20T06:05:11.571Z,1012.93
2022-09-20T06:06:11.562Z,1012.96
2022-09-20T06:07:11.566Z,1012.99
2022-09-20T06:08:11.557Z,1012.99
2022-09-20T06:09:11.528Z,1013.00
2022-09-20T06:10:11.519Z,1013.00
2022-09-20T06:11:11.505Z,1013.04
2022-09-20T06:12:11.508Z,1012.99
2022-09-20T06:13:11.483Z,1013.03
2022-09-20T06:14:11.474Z,1012.96
2022-09-20T06:15:11.460Z,1013.04
2022-09-20T06:16:11.485Z,1013.02
2022-09-20T06:17:11.451Z,1013.02
2022-09-20T06:18:11.430Z,1013.05
2022-09-20T06:19:11.419Z,1013.03
2022-09-20T06:20:11.409Z,1013.00
2022-09-20T06:21:11.396Z,1012.97
2022-09-20T06:22:11.399Z,1013.00
2022-09-20T06:23:11.373Z,1013.03
2022-09-20T06:24:11.380Z,1013.00
2022-09-20T06:25:11.353Z,1012.97
2022-09-20T06:26:11.341Z,1013.07
2022-09-20T06:27:11.342Z,1013.04
2022-09-20T06:28:11.320Z,1013.12
2022-09-20T06:29:11.308Z,1013.10
2022-09-20T06:30:11.298Z,1013.14
2022-09-20T06:31:11.483Z,1013.12
2022-09-20T06:32:11.290Z,1013.13
2022-09-20T06:33:11.265Z,1013.12
2022-09-20T06:34:11.265Z,1013.10
2022-09-20T06:35:11.241Z,1013.10
2022-09-20T06:36:11.233Z,1013.14
2022-09-20T06:37:11.235Z,1013.07
2022-09-20T06:38:11.214Z,1013.13
2022-09-20T06:39:11.199Z,1013.09
2022-09-20T06:40:11.241Z,1013.07
2022-09-20T06:41:11.175Z,1013.10
2022-09-20T06:42:11.199Z,1013.07
2022-09-20T06:43:11.158Z,1013.08
2022-09-20T06:44:11.144Z,1013.15
2022-09-20T06:45:11.132Z,1013.12
2022-09-20T06:46:11.174Z,1013.16
2022-09-20T06:47:11.120Z,1013.15
2022-09-20T06:48:11.100Z,1013.16
2022-09-20T06:49:11.088Z,1013.17
2022-09-20T06:50:11.080Z,1013.16
2022-09-20T06:51:11.069Z,1013.18
2022-09-20T06:52:11.067Z,1013.20
2022-09-20T06:53:11.055Z,1013.19
2022-09-20T06:54:11.035Z,1013.25
2022-09-20T06:55:11.026Z,1013.22
2022-09-20T06:56:11.048Z,1013.16
2022-09-20T06:57:11.000Z,1013.25
2022-09-20T06:58:11.002Z,1013.23
2022-09-20T06:59:10.979Z,1013.25
2022-09-20T07:00:10.976Z,1013.23
2022-09-20T07:01:11.014Z,1013.28
2022-09-20T07:02:11.086Z,1013.25
2022-09-20T07:03:10.942Z,1013.28
2022-09-20T07:04:10.927Z,1013.32
2022-09-20T07:05:10.917Z,1013.30
2022-09-20T07:06:10.927Z,1013.31
2022-09-20T07:07:10.899Z,1013.28
2022-09-20T07:08:10.882Z,1013.38
2022-09-20T07:09:10.869Z,1013.37
2022-09-20T07:10:10.861Z,1013.38
2022-09-20T07:11:10.847Z,1013.41
2022-09-20T07:12:10.866Z,1013.44
2022-09-20T07:13:10.832Z,1013.46
2022-09-20T07:14:10.816Z,1013.45
2022-09-20T07:15:10.805Z,1013.42
2022-09-20T07:16:10.830Z,1013.43
2022-09-20T07:17:10.798Z,1013.42
2022-09-20T07:18:10.772Z,1013.43
2022-09-20T07:19:10.764Z,1013.48
2022-09-20T07:20:10.750Z,1013.47
2022-09-20T07:21:10.739Z,1013.52
2022-09-20T07:22:10.753Z,1013.51
2022-09-20T07:23:10.715Z,1013.54
2022-09-20T07:24:10.706Z,1013.56
2022-09-20T07:25:10.711Z,1013.52
2022-09-20T07:26:10.687Z,1013.52
2022-09-20T07:27:10.684Z,1013.51
2022-09-20T07:28:10.680Z,1013.58
2022-09-20T07:29:10.651Z,1013.56
2022-09-20T07:30:10.642Z,1013.55
2022-09-20T07:31:10.629Z,1013.52
2022-09-20T07:32:10.631Z,1013.51
2022-09-20T07:33:10.608Z,1013.50
2022-09-20T07:34:10.599Z,1013.48
2022-09-20T07:35:10.584Z,1013.56
2022-09-20T07:36:10.585Z,1013.59
2022-09-20T07:37:10.571Z,1013.54
2022-09-20T07:38:10.554Z,1013.61
2022-09-20T07:39:10.542Z,1013.61
2022-09-20T07:40:10.592Z,1013.59
2022-09-20T07:41:10.547Z,1013.58
2022-09-20T07:42:10.509Z,1013.59
2022-09-20T07:43:10.497Z,1013.63
2022-09-20T07:44:10.503Z,1013.63
2022-09-20T07:45:10.485Z,1013.58
2022-09-20T07:46:10.535Z,1013.57
2022-09-20T07:47:10.461Z,1013.70
2022-09-20T07:48:10.447Z,1013.68
2022-09-20T07:49:10.431Z,1013.69
2022-09-20T07:50:10.425Z,1013.68
2022-09-20T07:51:10.436Z,1013.72
2022-09-20T07:52:10.415Z,1013.70
2022-09-20T07:53:10.392Z,1013.78
2022-09-20T07:54:10.383Z,1013.76
2022-09-20T07:55:10.371Z,1013.77
2022-09-20T07:56:10.365Z,1013.81
2022-09-20T07:57:10.356Z,1013.78
2022-09-20T07:58:10.340Z,1013.74
2022-09-20T07:59:10.343Z,1013.80
2022-09-20T08:00:10.338Z,1013.81
2022-09-20T08:01:10.364Z,1013.79
2022-09-20T08:02:10.334Z,1013.83
2022-09-20T08:03:10.285Z,1013.84
2022-09-20T08:04:10.275Z,1013.79
2022-09-20T08:05:10.269Z,1013.80
2022-09-20T08:06:10.254Z,1013.79
2022-09-20T08:07:10.255Z,1013.81
2022-09-20T08:08:10.234Z,1013.79
2022-09-20T08:09:11.333Z,1013.85
2022-09-20T08:10:10.213Z,1013.86
2022-09-20T08:11:10.203Z,1013.86
2022-09-20T08:14:11.171Z,1013.87
2022-09-20T08:15:12.054Z,1013.85
2022-09-20T08:16:10.209Z,1013.84
2022-09-20T08:17:10.149Z,1013.90
2022-09-20T08:18:10.131Z,1013.88
2022-09-20T08:19:10.126Z,1013.88
2022-09-20T08:20:10.116Z,1013.96
2022-09-20T08:21:10.099Z,1013.93
2022-09-20T08:22:10.101Z,1013.91
2022-09-20T08:23:22.986Z,1013.85
2022-09-20T08:24:11.068Z,1013.92
2022-09-20T08:25:10.057Z,1013.91
2022-09-20T08:26:10.049Z,1013.93
2022-09-20T08:27:10.055Z,1013.93
2022-09-20T08:28:10.039Z,1013.95
2022-09-20T08:29:10.017Z,1013.93
2022-09-20T08:30:10.009Z,1013.96
2022-09-20T08:31:10.002Z,1013.93
2022-09-20T08:32:10.002Z,1013.99
2022-09-20T08:33:09.986Z,1014.02
2022-09-20T08:34:09.968Z,1014.02
2022-09-20T08:35:09.954Z,1014.08
2022-09-20T08:36:09.946Z,1014.10
2022-09-20T08:37:09.933Z,1014.13
2022-09-20T08:40:10.958Z,1014.08
2022-09-20T08:41:09.894Z,1014.10
2022-09-20T08:42:09.889Z,1014.11
2022-09-20T08:43:09.894Z,1014.13
2022-09-20T08:44:09.864Z,1014.03
2022-09-20T08:45:09.854Z,1014.20
2022-09-20T08:46:09.897Z,1014.20
2022-09-20T08:47:09.845Z,1014.15
2022-09-20T08:48:09.851Z,1014.16
2022-09-20T08:49:11.021Z,1014.10
2022-09-20T08:50:11.159Z,1014.19
2022-09-20T08:51:09.792Z,1014.22
2022-09-20T08:52:10.826Z,1014.20
2022-09-20T08:53:09.781Z,1014.08
2022-09-20T08:54:09.763Z,1014.21
2022-09-20T08:55:09.751Z,1014.19
2022-09-20T08:56:09.742Z,1014.22
2022-09-20T08:57:09.738Z,1014.19
2022-09-20T08:58:09.759Z,1014.24
2022-09-20T08:59:09.711Z,1014.19
2022-09-20T09:00:09.702Z,1014.26
2022-09-20T09:01:09.745Z,1014.25
2022-09-20T09:02:09.780Z,1014.08
2022-09-20T09:03:09.694Z,1014.26
2022-09-20T09:04:09.700Z,1014.23
2022-09-20T09:05:09.648Z,1014.24
2022-09-20T09:06:13.282Z,1014.26
2022-09-20T09:07:10.628Z,1014.27
2022-09-20T09:08:09.635Z,1014.23
2022-09-20T09:09:09.611Z,1014.26
2022-09-20T09:10:09.683Z,1014.26
2022-09-20T09:11:09.648Z,1014.21
2022-09-20T09:12:09.584Z,1014.23
2022-09-20T09:13:09.584Z,1014.23
2022-09-20T09:14:09.564Z,1014.24
2022-09-20T09:15:09.549Z,1014.25
2022-09-20T09:16:09.587Z,1014.25
2022-09-20T09:17:09.562Z,1014.26
2022-09-20T09:18:09.533Z,1014.28
2022-09-20T09:19:09.510Z,1014.32
2022-09-20T09:20:09.519Z,1014.30
2022-09-20T09:21:09.503Z,1014.27
2022-09-20T09:22:09.485Z,1014.23
2022-09-20T09:23:09.487Z,1014.30
2022-09-20T09:24:09.473Z,1014.32
2022-09-20T09:25:09.453Z,1014.28
2022-09-20T09:26:09.445Z,1014.29
2022-09-20T09:27:09.428Z,1014.30
2022-09-20T09:28:09.430Z,1014.26
2022-09-20T09:29:09.409Z,1014.29
2022-09-20T09:30:09.400Z,1014.19
2022-09-20T09:31:09.390Z,1014.30
2022-09-20T09:32:09.420Z,1014.31
2022-09-20T09:33:09.391Z,1014.29
2022-09-20T09:34:09.361Z,1014.32
2022-09-20T09:35:09.349Z,1014.32
2022-09-20T09:36:09.356Z,1014.32
2022-09-20T09:37:09.332Z,1014.22
2022-09-20T09:38:09.330Z,1014.32
2022-09-20T09:39:09.309Z,1014.35
2022-09-20T09:40:09.329Z,1014.17
2022-09-20T09:41:09.289Z,1014.43
2022-09-20T09:42:09.281Z,1014.32
2022-09-20T09:43:09.280Z,1014.25
2022-09-20T09:44:09.260Z,1014.34
2022-09-20T09:45:09.247Z,1014.33
2022-09-20T09:46:09.345Z,1014.39
2022-09-20T09:47:09.230Z,1014.36
2022-09-20T09:48:09.229Z,1014.23
2022-09-20T09:49:11.718Z,1014.30
2022-09-20T09:50:10.035Z,1014.37
2022-09-20T09:51:09.206Z,1014.24
2022-09-20T09:52:09.197Z,1014.28
2022-09-20T09:53:09.198Z,1014.25
2022-09-20T09:54:09.168Z,1014.42
2022-09-20T09:55:09.163Z,1014.37
2022-09-20T09:56:13.924Z,1014.40
2022-09-20T09:57:10.130Z,1014.41
2022-09-20T09:58:09.128Z,1014.34
2022-09-20T09:59:09.128Z,1014.40
2022-09-20T10:00:16.678Z,1014.34
2022-09-20T10:01:10.140Z,1014.38
2022-09-20T10:02:09.126Z,1014.38
2022-09-20T10:03:09.079Z,1014.30
2022-09-20T10:04:09.134Z,1014.30
2022-09-20T10:05:09.047Z,1014.34
2022-09-20T10:06:09.037Z,1014.22
2022-09-20T10:07:09.038Z,1014.35
2022-09-20T10:08:09.040Z,1014.24
2022-09-20T10:09:09.007Z,1014.28
2022-09-20T10:10:08.996Z,1014.27
2022-09-20T10:11:08.988Z,1014.28
2022-09-20T10:12:08.986Z,1014.24
2022-09-20T10:13:08.973Z,1014.29
2022-09-20T10:14:08.957Z,1014.17
2022-09-20T10:15:08.957Z,1014.21
2022-09-20T10:16:08.988Z,1014.21
2022-09-20T10:17:08.937Z,1014.21
2022-09-20T10:18:08.915Z,1014.28
2022-09-20T10:19:08.930Z,1014.23
2022-09-20T10:20:08.895Z,1014.22
2022-09-20T10:21:08.886Z,1014.24
2022-09-20T10:22:08.886Z,1014.18
2022-09-20T10:24:09.870Z,1014.24
2022-09-20T10:25:08.848Z,1014.18
2022-09-20T10:26:08.858Z,1014.19
2022-09-20T10:27:08.838Z,1014.10
2022-09-20T10:28:08.816Z,1014.17
2022-09-20T10:29:08.812Z,1014.21
2022-09-20T10:30:08.798Z,1014.21
2022-09-20T10:31:08.871Z,1014.18
2022-09-20T10:32:09.937Z,1014.20
2022-09-20T10:33:08.768Z,1014.20
2022-09-20T10:34:08.756Z,1014.28
2022-09-20T10:35:08.747Z,1014.18
2022-09-20T10:36:08.739Z,1014.25
2022-09-20T10:37:08.762Z,1014.20
2022-09-20T10:38:08.715Z,1014.16
2022-09-20T10:39:08.709Z,1014.15
2022-09-20T10:40:08.805Z,1014.18
2022-09-20T10:41:08.685Z,1014.22
2022-09-20T10:42:08.683Z,1014.22
2022-09-20T10:43:08.664Z,1014.24
2022-09-20T10:44:08.651Z,1014.26
2022-09-20T10:45:08.647Z,1014.26
2022-09-20T10:46:30.872Z,1014.24
2022-09-20T10:47:09.711Z,1014.20
2022-09-20T10:48:08.610Z,1014.20
2022-09-20T10:49:08.600Z,1014.26
2022-09-20T10:50:08.598Z,1014.37
2022-09-20T10:51:08.579Z,1014.33
2022-09-20T10:52:08.580Z,1014.41
2022-09-20T10:53:08.558Z,1014.40
2022-09-20T10:54:08.546Z,1014.41
2022-09-20T10:55:08.541Z,1014.40
2022-09-20T10:56:08.541Z,1014.42
2022-09-20T10:57:08.525Z,1014.50
2022-09-20T10:58:08.502Z,1014.49
2022-09-20T10:59:08.494Z,1014.46
2022-09-20T11:00:08.482Z,1014.42
2022-09-20T11:01:08.544Z,1014.50
2022-09-20T11:02:08.539Z,1014.51
2022-09-20T11:03:08.451Z,1014.45
2022-09-20T11:04:08.491Z,1014.44
2022-09-20T11:05:08.428Z,1014.43
2022-09-20T11:06:08.428Z,1014.46
2022-09-20T11:07:08.421Z,1014.51
2022-09-20T11:08:08.392Z,1014.50
2022-09-20T11:09:11.882Z,1014.50
2022-09-20T11:10:09.374Z,1014.53
2022-09-20T11:11:08.360Z,1014.49
2022-09-20T11:12:08.373Z,1014.49
2022-09-20T11:13:08.341Z,1014.49
2022-09-20T11:14:08.324Z,1014.53
2022-09-20T11:15:08.317Z,1014.52
2022-09-20T11:16:08.367Z,1014.59
2022-09-20T11:17:08.305Z,1014.59
2022-09-20T11:18:08.281Z,1014.62
2022-09-20T11:19:08.273Z,1014.62
2022-09-20T11:20:08.259Z,1014.64
2022-09-20T11:21:08.250Z,1014.73
2022-09-20T11:22:08.259Z,1014.71
2022-09-20T11:23:08.231Z,1014.77
2022-09-20T11:24:08.218Z,1014.83
2022-09-20T11:25:08.206Z,1014.90
2022-09-20T11:26:08.193Z,1014.97
2022-09-20T11:27:08.201Z,1014.98
2022-09-20T11:28:08.190Z,1015.02
2022-09-20T11:29:08.164Z,1015.10
2022-09-20T11:30:08.149Z,1015.16
2022-09-20T11:31:08.146Z,1015.17
2022-09-20T11:32:08.211Z,1015.01
2022-09-20T11:33:08.120Z,1015.02
2022-09-20T11:34:08.110Z,1015.02
2022-09-20T11:35:08.101Z,1014.95
2022-09-20T11:36:08.087Z,1014.98
2022-09-20T11:37:08.087Z,1014.96
2022-09-20T11:38:08.065Z,1015.03
2022-09-20T11:39:08.173Z,1014.97
2022-09-20T11:40:08.092Z,1014.93
2022-09-20T11:41:08.079Z,1014.91
2022-09-20T11:42:08.037Z,1014.88
2022-09-20T11:43:08.011Z,1014.91
2022-09-20T11:44:08.016Z,1014.83
2022-09-20T11:45:07.991Z,1014.83
2022-09-20T11:46:08.104Z,1014.80
2022-09-20T11:47:08.055Z,1014.79
2022-09-20T11:48:07.961Z,1014.85
2022-09-20T11:49:07.946Z,1014.85
2022-09-20T11:50:07.935Z,1014.87
2022-09-20T11:51:07.926Z,1014.88
2022-09-20T11:52:07.931Z,1014.83
2022-09-20T11:53:07.902Z,1014.87
2022-09-20T11:54:07.891Z,1014.85
2022-09-20T11:55:07.880Z,1014.86
2022-09-20T11:56:07.882Z,1014.85
2022-09-20T11:57:07.867Z,1014.89
2022-09-20T11:58:07.845Z,1014.90
2022-09-20T11:59:07.851Z,1014.91
2022-09-20T12:00:07.842Z,1014.94
2022-09-20T12:01:07.815Z,1014.96
2022-09-20T12:02:07.910Z,1014.98
2022-09-20T12:03:07.972Z,1014.95
2022-09-20T12:04:31.916Z,1014.96
2022-09-20T12:05:08.772Z,1014.95
2022-09-20T12:06:07.758Z,1014.89
2022-09-20T12:07:10.609Z,1014.91
2022-09-20T12:08:07.735Z,1014.94
2022-09-20T12:09:07.731Z,1014.93
2022-09-20T12:10:07.714Z,1014.93